createdAt,value
2023-02-02T11:37:26.866Z,12
2023-02-02T13:58:19.963Z,14
2023-02-02T14:07:19.926Z,14
2023-02-02T14:08:19.941Z,15
2023-02-02T14:09:19.941Z,13
2023-02-02T14:10:19.945Z,18
2023-02-02T14:11:19.927Z,17
2023-02-02T14:12:19.922Z,17
2023-02-02T14:13:19.935Z,16
2023-02-02T14:14:19.988Z,16
2023-02-02T14:15:19.950Z,21
2023-02-02T14:16:20.044Z,15
2023-02-02T14:17:19.926Z,16
2023-02-02T14:18:19.938Z,18
2023-02-02T14:19:19.938Z,14
2023-02-02T14:20:19.981Z,17
2023-02-02T14:21:19.960Z,21
2023-02-02T14:22:19.938Z,13
2023-02-02T14:23:19.932Z,16
2023-02-02T14:24:19.954Z,15
2023-02-02T14:25:19.938Z,13
2023-02-02T14:26:20.052Z,20
2023-02-02T14:27:20.044Z,15
2023-02-02T14:28:19.939Z,17
2023-02-02T14:29:19.953Z,22
2023-02-02T14:30:19.926Z,19
2023-02-02T14:31:20.116Z,22
2023-02-02T14:32:19.929Z,14
2023-02-02T14:33:19.936Z,17
2023-02-02T14:34:20.000Z,20
2023-02-02T14:35:19.930Z,15
2023-02-02T14:36:19.997Z,20
2023-02-02T14:37:19.939Z,17
2023-02-02T14:38:19.927Z,15
2023-02-02T14:39:19.942Z,17
2023-02-02T14:40:19.988Z,17
2023-02-02T14:41:19.939Z,12
2023-02-02T14:42:19.926Z,20
2023-02-02T14:43:19.916Z,18
2023-02-02T14:44:19.935Z,14
2023-02-02T14:45:19.938Z,13
2023-02-02T14:46:19.955Z,14
2023-02-02T14:47:19.934Z,12
2023-02-02T14:48:19.925Z,11
2023-02-02T14:49:19.930Z,15
2023-02-02T14:50:19.934Z,17
2023-02-02T14:51:19.924Z,13
2023-02-02T14:52:19.931Z,14
2023-02-02T14:53:19.935Z,12
2023-02-02T14:54:19.930Z,19
2023-02-02T14:55:19.941Z,15
2023-02-02T14:56:19.988Z,13
2023-02-02T14:57:19.927Z,19
2023-02-02T14:58:19.928Z,16
2023-02-02T14:59:19.929Z,19
2023-02-02T15:00:19.966Z,22
2023-02-02T15:02:19.923Z,13
2023-02-02T15:03:19.924Z,17
2023-02-02T15:04:19.941Z,9
2023-02-02T15:05:19.932Z,18
2023-02-02T15:06:19.985Z,17
2023-02-02T15:07:19.926Z,16
2023-02-02T15:08:19.932Z,17
2023-02-02T15:09:19.941Z,19
2023-02-02T15:10:19.929Z,13
2023-02-02T15:11:20.005Z,17
2023-02-02T15:12:19.927Z,18
2023-02-02T15:13:19.926Z,13
2023-02-02T15:14:19.919Z,17
2023-02-02T15:15:19.950Z,21
2023-02-02T15:16:19.993Z,20
2023-02-02T15:17:19.932Z,18
2023-02-02T15:18:19.943Z,18
2023-02-02T15:19:19.926Z,13
2023-02-02T15:20:19.964Z,12
2023-02-02T15:21:19.922Z,18
2023-02-02T15:22:19.933Z,19
2023-02-02T15:23:19.922Z,20
2023-02-02T15:24:19.928Z,17
2023-02-02T15:25:19.925Z,19
2023-02-02T15:26:20.060Z,16
2023-02-02T15:27:19.922Z,11
2023-02-02T15:28:19.939Z,14
2023-02-02T15:29:19.936Z,16
2023-02-02T15:30:19.939Z,19
2023-02-02T15:31:19.994Z,14
2023-02-02T15:32:19.936Z,12
2023-02-02T15:33:19.930Z,19
2023-02-02T15:34:19.935Z,15
2023-02-02T15:35:19.960Z,16
2023-02-02T15:36:19.926Z,19
2023-02-02T15:37:19.920Z,14
2023-02-02T15:38:19.927Z,18
2023-02-02T15:39:19.932Z,17
2023-02-02T15:40:19.935Z,17
2023-02-02T15:41:19.958Z,15
2023-02-02T15:42:19.926Z,17
2023-02-02T15:43:19.946Z,15
2023-02-02T15:44:19.927Z,17
2023-02-02T15:45:19.921Z,17
2023-02-02T15:46:19.949Z,19
2023-02-02T15:47:19.966Z,20
2023-02-02T15:48:19.961Z,15
2023-02-02T15:49:34.796Z,13
2023-02-02T15:50:19.947Z,17
2023-02-02T15:51:19.915Z,18
2023-02-02T15:52:19.917Z,14
2023-02-02T15:53:19.938Z,15
2023-02-02T15:54:19.927Z,17
2023-02-02T15:55:20.097Z,15
2023-02-02T15:56:19.919Z,13
2023-02-02T15:57:19.928Z,12
2023-02-02T15:58:19.950Z,15
2023-02-02T15:59:19.926Z,14
2023-02-02T16:00:19.926Z,14
2023-02-02T16:01:19.970Z,17
2023-02-02T16:02:20.013Z,16
2023-02-02T16:03:19.927Z,16
2023-02-02T16:04:19.975Z,20
2023-02-02T16:05:19.944Z,16
2023-02-02T16:06:19.937Z,13
2023-02-02T16:07:19.926Z,14
2023-02-02T16:08:19.997Z,18
2023-02-02T16:09:19.926Z,14
2023-02-02T16:10:19.921Z,17
2023-02-02T16:11:19.975Z,10
2023-02-02T16:12:19.936Z,12
2023-02-02T16:13:19.918Z,14
2023-02-02T16:14:19.936Z,14
2023-02-02T16:15:19.952Z,10
2023-02-02T16:16:20.077Z,13
2023-02-02T16:17:19.920Z,15
2023-02-02T16:18:19.988Z,12
2023-02-02T16:19:19.926Z,13
2023-02-02T16:20:19.940Z,14
2023-02-02T16:21:19.912Z,17
2023-02-02T16:22:19.928Z,18
2023-02-02T16:24:19.932Z,17
2023-02-02T16:25:19.920Z,19
2023-02-02T16:26:19.977Z,14
2023-02-02T16:27:19.926Z,19
2023-02-02T16:28:19.939Z,17
2023-02-02T16:29:19.935Z,16
2023-02-02T16:30:19.929Z,12
2023-02-02T16:31:20.059Z,14
2023-02-02T16:32:19.933Z,20
2023-02-02T16:33:19.937Z,15
2023-02-02T16:34:19.923Z,18
2023-02-02T16:35:19.914Z,18
2023-02-02T16:36:25.026Z,18
2023-02-02T16:37:19.918Z,23
2023-02-02T16:38:19.936Z,27
2023-02-02T16:40:22.560Z,22
2023-02-02T16:41:19.918Z,20
2023-02-02T16:42:19.912Z,18
2023-02-02T16:43:19.935Z,18
2023-02-02T16:44:19.921Z,19
2023-02-02T16:45:20.162Z,23
2023-02-02T16:46:19.972Z,15
2023-02-02T16:47:19.921Z,21
2023-02-02T16:48:19.953Z,14
2023-02-02T16:49:19.917Z,16
2023-02-02T16:50:19.982Z,17
2023-02-02T16:51:20.107Z,18
2023-02-02T16:52:19.950Z,25
2023-02-02T16:53:19.957Z,22
2023-02-02T16:55:19.943Z,16
2023-02-02T16:56:19.916Z,21
2023-02-02T16:57:19.960Z,21
2023-02-02T16:58:20.010Z,18
2023-02-02T16:59:19.919Z,23
2023-02-02T17:00:19.938Z,21
2023-02-02T17:01:19.960Z,26
2023-02-02T17:02:20.012Z,33
2023-02-02T17:03:19.931Z,28
2023-02-02T17:04:19.944Z,26
2023-02-02T17:05:19.917Z,25
2023-02-02T17:06:19.929Z,28
2023-02-02T17:07:19.916Z,31
2023-02-02T17:08:19.911Z,30
2023-02-02T17:09:19.916Z,29
2023-02-02T17:10:19.989Z,27
2023-02-02T17:11:19.918Z,29
2023-02-02T17:12:32.706Z,25
2023-02-02T17:13:19.915Z,30
2023-02-02T17:14:19.915Z,27
2023-02-02T17:15:19.907Z,32
2023-02-02T17:16:20.014Z,31
2023-02-02T17:17:19.924Z,28
2023-02-02T17:18:19.928Z,23
2023-02-02T17:19:19.921Z,22
2023-02-02T17:20:19.972Z,29
2023-02-02T17:21:19.923Z,28
2023-02-02T17:22:19.913Z,23
2023-02-02T17:23:19.933Z,25
2023-02-02T17:24:19.928Z,26
2023-02-02T17:25:19.964Z,31
2023-02-02T17:26:19.986Z,35
2023-02-02T17:27:19.914Z,25
2023-02-02T17:28:19.923Z,27
2023-02-02T17:29:19.921Z,29
2023-02-02T17:30:19.997Z,30
2023-02-02T17:31:20.032Z,27
2023-02-02T17:32:19.917Z,29
2023-02-02T17:33:19.913Z,31
2023-02-02T17:34:19.929Z,25
2023-02-02T17:35:19.974Z,25
2023-02-02T17:36:19.912Z,31
2023-02-02T17:37:19.913Z,24
2023-02-02T17:38:19.913Z,26
2023-02-02T17:40:19.915Z,27
2023-02-02T17:41:19.915Z,23
2023-02-02T17:42:19.944Z,28
2023-02-02T17:43:19.931Z,22
2023-02-02T17:44:19.912Z,21
2023-02-02T17:45:19.927Z,21
2023-02-02T17:46:19.924Z,18
2023-02-02T17:47:19.912Z,21
2023-02-02T17:48:19.918Z,24
2023-02-02T17:49:19.963Z,18
2023-02-02T17:50:19.921Z,20
2023-02-02T17:51:19.912Z,18
2023-02-02T17:52:19.921Z,20
2023-02-02T17:53:19.917Z,20
2023-02-02T17:54:19.924Z,20
2023-02-02T17:55:19.917Z,21
2023-02-02T17:56:19.907Z,19
2023-02-02T17:57:19.951Z,17
2023-02-02T17:58:19.939Z,14
2023-02-02T17:59:19.929Z,19
2023-02-02T18:00:19.930Z,17
2023-02-02T18:01:19.956Z,18
2023-02-02T18:02:19.926Z,16
2023-02-02T18:03:19.997Z,15
2023-02-02T18:04:19.912Z,12
2023-02-02T18:05:19.910Z,14
2023-02-02T18:06:19.945Z,15
2023-02-02T18:07:19.986Z,13
2023-02-02T18:08:19.937Z,17
2023-02-02T18:09:19.919Z,14
2023-02-02T18:10:19.920Z,15
2023-02-02T18:11:19.919Z,13
2023-02-02T18:12:19.928Z,15
2023-02-02T18:13:19.925Z,15
2023-02-02T18:14:19.907Z,13
2023-02-02T18:15:19.915Z,12
2023-02-02T18:16:20.055Z,11
2023-02-02T18:17:19.913Z,11
2023-02-02T18:18:19.908Z,15
2023-02-02T18:19:19.917Z,13
2023-02-02T18:20:19.908Z,10
2023-02-02T18:21:19.927Z,14
2023-02-02T18:22:19.935Z,13
2023-02-02T18:24:19.909Z,12
2023-02-02T18:25:19.959Z,13
2023-02-02T18:28:19.913Z,13
2023-02-02T18:29:19.919Z,12
2023-02-02T18:30:19.924Z,12
2023-02-02T18:31:20.032Z,17
2023-02-02T18:32:19.920Z,14
2023-02-02T18:33:20.346Z,15
2023-02-02T18:34:19.908Z,13
2023-02-02T18:36:19.991Z,17
2023-02-02T18:37:19.929Z,16
2023-02-02T18:38:19.927Z,19
2023-02-02T18:39:19.924Z,22
2023-02-02T18:41:19.936Z,19
2023-02-02T18:42:19.969Z,18
2023-02-02T18:43:19.914Z,19
2023-02-02T18:45:19.913Z,17
2023-02-02T18:46:19.969Z,17
2023-02-02T18:47:19.910Z,22
2023-02-02T18:48:20.871Z,21
2023-02-02T18:50:19.908Z,21
2023-02-02T18:51:19.913Z,21
2023-02-02T18:52:19.910Z,21
2023-02-02T18:53:19.905Z,23
2023-02-02T18:54:19.976Z,21
2023-02-02T18:55:19.921Z,24
2023-02-02T18:57:19.905Z,24
2023-02-02T18:59:19.969Z,21
2023-02-02T19:00:19.926Z,20
2023-02-02T19:01:20.016Z,21
2023-02-02T19:02:19.910Z,22
2023-02-02T19:03:19.916Z,21
2023-02-02T19:05:19.906Z,24
2023-02-02T19:08:19.932Z,22
2023-02-02T19:09:19.939Z,24
2023-02-02T19:10:19.921Z,24
2023-02-02T19:11:19.912Z,21
2023-02-02T19:12:19.912Z,25
2023-02-02T19:13:19.922Z,28
2023-02-02T19:14:19.959Z,24
2023-02-02T19:15:19.912Z,27
2023-02-02T19:17:19.913Z,26
2023-02-02T19:19:19.912Z,28
2023-02-02T19:20:19.912Z,23
2023-02-02T19:21:19.906Z,25
2023-02-02T19:24:19.915Z,27
2023-02-02T19:26:20.016Z,28
2023-02-02T19:27:19.921Z,27
2023-02-02T19:28:19.911Z,31
2023-02-02T19:29:19.950Z,24
2023-02-02T19:34:19.997Z,32
2023-02-02T19:35:19.924Z,23
2023-02-02T19:36:19.908Z,25
2023-02-02T19:39:20.007Z,27
2023-02-02T19:40:19.905Z,30
2023-02-02T19:42:19.923Z,24
2023-02-02T19:43:19.908Z,23
2023-02-02T19:44:20.597Z,28
2023-02-02T19:54:19.915Z,24
2023-02-02T19:55:19.915Z,26
2023-02-02T20:02:19.907Z,28
2023-02-02T20:03:19.954Z,22
2023-02-02T20:06:19.920Z,25
2023-02-02T20:07:19.912Z,24
2023-02-02T20:08:19.927Z,32
2023-02-02T20:09:19.911Z,30
2023-02-02T20:10:19.916Z,26
2023-02-02T20:11:19.922Z,28
2023-02-02T20:13:19.913Z,32
2023-02-02T20:19:19.906Z,32
2023-02-02T20:21:19.934Z,26
2023-02-02T20:23:19.913Z,25
2023-02-02T20:24:19.909Z,25
2023-02-02T20:30:19.916Z,26
2023-02-02T20:31:20.140Z,27
2023-02-02T20:32:19.907Z,30
2023-02-02T20:40:19.911Z,29
2023-02-02T20:41:19.919Z,27
2023-02-02T20:44:19.909Z,28
2023-02-02T20:50:19.923Z,26
2023-02-02T20:53:19.909Z,28
2023-02-02T20:58:19.910Z,30
2023-02-02T21:03:19.955Z,25
2023-02-02T21:05:19.911Z,29
2023-02-02T21:07:19.950Z,26
2023-02-02T21:09:19.921Z,28
2023-02-02T21:12:20.046Z,23
2023-02-02T21:14:19.907Z,30
2023-02-02T21:15:19.921Z,24
2023-02-02T21:18:19.911Z,28
2023-02-02T21:20:19.905Z,24
2023-02-02T21:23:19.964Z,21
2023-02-02T21:25:19.927Z,23
2023-02-02T21:28:19.972Z,21
2023-02-02T21:30:19.946Z,22
2023-02-02T21:32:19.917Z,20
2023-02-02T21:35:19.922Z,25
2023-02-02T21:36:19.913Z,23
2023-02-02T21:38:19.964Z,23
2023-02-02T21:40:19.906Z,24
2023-02-02T21:43:19.996Z,21
2023-02-02T21:47:19.913Z,22
2023-02-02T21:48:19.957Z,21
2023-02-02T22:05:20.218Z,21
2023-02-02T22:06:19.908Z,22
2023-02-02T22:14:19.919Z,22
2023-02-02T22:33:19.934Z,22
2023-02-02T22:36:19.926Z,22
2023-02-02T22:37:19.912Z,28
2023-02-02T22:42:19.924Z,22
2023-02-02T22:45:19.929Z,25
2023-02-02T22:46:19.968Z,29
2023-02-02T22:47:19.926Z,24
2023-02-02T22:51:19.912Z,22
2023-02-02T23:01:19.908Z,22
2023-02-02T23:06:19.920Z,20
2023-02-02T23:07:19.915Z,22
2023-02-02T23:16:19.943Z,23
2023-02-02T23:35:19.948Z,22
2023-02-02T23:36:20.226Z,21
2023-02-02T23:39:19.911Z,21
2023-02-02T23:44:19.926Z,24
2023-02-02T23:47:19.922Z,16
